Time;durP1;ratioP1;P1;durP2;ratioP2;P2;SDS_P1;SDS_P2;PMS_P1;PMS_P2;Temp;Humidity;BMP_temperature;BMP_pressure;BME280_temperature;BME280_humidity;BME280_pressure;Samples;Min_cycle;Max_cycle;Signal;HPM_P1;HPM_P2
2023/09/02 00:01:40;;;;;;;7.57;3.50;;;13.90;99.90;;;;;;5133712;28;20134;-81
2023/09/02 00:04:07;;;;;;;4.93;3.45;;;13.80;99.90;;;;;;5134061;28;20047;-83
2023/09/02 00:06:33;;;;;;;4.03;3.63;;;13.80;99.90;;;;;;5133404;28;20055;-82
2023/09/02 00:08:58;;;;;;;3.90;3.40;;;13.80;99.90;;;;;;5133455;28;20130;-82
2023/09/02 00:11:24;;;;;;;4.70;3.17;;;13.70;99.90;;;;;;5133412;28;20043;-82
2023/09/02 00:13:50;;;;;;;4.53;3.33;;;13.70;99.90;;;;;;5133721;28;20047;-81
2023/09/02 00:16:17;;;;;;;3.83;3.42;;;13.70;99.90;;;;;;5133467;28;20047;-83
2023/09/02 00:18:43;;;;;;;5.63;4.90;;;13.70;99.90;;;;;;5133809;28;20107;-81
2023/09/02 00:21:11;;;;;;;6.00;4.53;;;13.60;99.90;;;;;;5133804;27;20047;-82
2023/09/02 00:23:39;;;;;;;9.50;5.15;;;13.70;99.90;;;;;;5137412;27;20051;-82
2023/09/02 00:26:05;;;;;;;10.13;4.72;;;13.70;99.90;;;;;;5137702;27;20171;-82
2023/09/02 00:28:30;;;;;;;4.95;4.53;;;13.70;99.90;;;;;;5136853;27;20118;-84
2023/09/02 00:30:56;;;;;;;6.75;5.10;;;13.60;99.90;;;;;;5137997;27;20055;-82
2023/09/02 00:33:22;;;;;;;7.28;4.95;;;13.60;99.90;;;;;;5137276;27;20395;-83
2023/09/02 00:35:47;;;;;;;7.70;3.65;;;13.60;99.90;;;;;;5137466;27;20092;-83
2023/09/02 00:38:13;;;;;;;6.03;4.00;;;13.60;99.90;;;;;;5138337;27;20389;-82
2023/09/02 00:40:46;;;;;;;7.05;5.30;;;13.50;99.90;;;;;;5138457;27;20475;-81
2023/09/02 00:43:11;;;;;;;5.05;4.35;;;13.50;99.90;;;;;;5139031;27;20392;-82
2023/09/02 00:45:38;;;;;;;5.13;3.75;;;13.50;99.90;;;;;;5138305;27;20043;-83
2023/09/02 00:48:04;;;;;;;7.47;5.47;;;13.50;99.90;;;;;;5142092;27;20116;-82
2023/09/02 00:50:30;;;;;;;7.22;4.57;;;13.40;99.90;;;;;;5141143;27;20420;-81
2023/09/02 00:52:56;;;;;;;5.50;3.88;;;13.50;99.90;;;;;;5139942;27;20118;-82
2023/09/02 00:55:21;;;;;;;6.63;4.72;;;13.50;99.90;;;;;;5138547;27;20120;-84
2023/09/02 00:57:47;;;;;;;6.63;4.25;;;13.50;99.90;;;;;;5137443;27;20401;-82
2023/09/02 01:00:14;;;;;;;5.45;4.05;;;13.40;99.90;;;;;;5118840;27;20054;-82
2023/09/02 01:02:40;;;;;;;6.15;4.60;;;13.40;99.90;;;;;;5118106;27;20496;-83
2023/09/02 01:05:06;;;;;;;7.35;5.07;;;13.30;99.90;;;;;;5118651;27;20135;-83
2023/09/02 01:07:34;;;;;;;4.72;4.28;;;13.30;99.90;;;;;;5118393;27;20190;-82
2023/09/02 01:10:00;;;;;;;6.40;4.85;;;13.30;99.90;;;;;;5137305;27;20124;-82
2023/09/02 01:12:26;;;;;;;5.18;4.68;;;13.40;99.90;;;;;;5136140;27;20501;-83
2023/09/02 01:14:52;;;;;;;6.00;5.45;;;13.40;99.90;;;;;;5136124;27;20532;-83
2023/09/02 01:17:18;;;;;;;4.97;4.47;;;13.40;99.90;;;;;;5136432;27;20039;-82
2023/09/02 01:19:45;;;;;;;5.25;4.45;;;13.40;99.90;;;;;;5118227;27;20043;-82
2023/09/02 01:22:42;;;;;;;5.55;4.00;;;13.40;99.90;;;;;;5118080;27;20448;-80
2023/09/02 01:25:24;;;;;;;5.57;4.90;;;13.30;99.90;;;;;;5136849;27;20118;-82
2023/09/02 01:27:55;;;;;;;5.28;4.28;;;13.30;99.90;;;;;;5136455;27;20126;-81
2023/09/02 01:30:29;;;;;;;5.97;4.85;;;13.40;99.90;;;;;;5118126;27;20061;-83
2023/09/02 01:32:56;;;;;;;8.25;5.55;;;13.30;99.90;;;;;;5135188;27;20039;-83
2023/09/02 01:35:27;;;;;;;9.27;5.57;;;13.40;99.90;;;;;;5117928;27;20051;-82
2023/09/02 01:37:56;;;;;;;6.90;5.22;;;13.40;99.90;;;;;;5135771;27;20498;-81
2023/09/02 01:40:25;;;;;;;6.13;4.75;;;13.40;99.90;;;;;;5135916;27;20650;-82
2023/09/02 01:42:57;;;;;;;6.88;5.68;;;13.40;99.90;;;;;;5135873;27;20046;-83
2023/09/02 01:45:26;;;;;;;7.05;6.00;;;13.40;99.90;;;;;;5136228;27;20043;-81
2023/09/02 01:47:52;;;;;;;6.55;5.43;;;13.30;99.90;;;;;;5135855;27;20039;-81
2023/09/02 01:50:22;;;;;;;6.15;5.00;;;13.30;99.90;;;;;;5135741;27;20047;-81
2023/09/02 01:52:48;;;;;;;6.07;5.10;;;13.30;99.90;;;;;;5135821;27;20126;-82
2023/09/02 01:55:16;;;;;;;5.38;4.82;;;13.30;99.90;;;;;;5135859;27;20075;-79
2023/09/02 01:57:42;;;;;;;7.28;4.78;;;13.20;99.90;;;;;;5135657;27;20104;-78
2023/09/02 02:00:11;;;;;;;6.35;4.55;;;13.20;99.90;;;;;;5135214;27;20483;-81
2023/09/02 02:02:38;;;;;;;5.70;5.10;;;13.20;99.90;;;;;;5135994;27;20047;-81
2023/09/02 02:05:06;;;;;;;4.90;4.18;;;13.20;99.90;;;;;;5135386;27;20050;-82
2023/09/02 02:07:36;;;;;;;4.90;4.40;;;13.20;99.90;;;;;;5117555;27;20103;-81
2023/09/02 02:10:06;;;;;;;8.52;5.30;;;13.20;99.90;;;;;;5135150;27;20045;-81
2023/09/02 02:12:32;;;;;;;6.57;5.07;;;13.20;99.90;;;;;;5135849;27;20112;-81
2023/09/02 02:14:57;;;;;;;4.93;4.43;;;12.80;99.90;;;;;;5135261;27;20468;-79
2023/09/02 02:17:23;;;;;;;9.98;7.03;;;13.30;99.90;;;;;;5135274;27;20483;-80
2023/09/02 02:19:49;;;;;;;8.98;6.60;;;13.20;99.90;;;;;;5135739;27;20135;-81
2023/09/02 02:22:15;;;;;;;7.22;6.13;;;13.30;99.90;;;;;;5117349;27;20035;-81
2023/09/02 02:24:41;;;;;;;5.22;4.72;;;13.20;99.90;;;;;;5135308;27;20130;-81
2023/09/02 02:27:06;;;;;;;5.07;4.50;;;13.20;99.90;;;;;;5135046;27;20039;-81
2023/09/02 02:29:32;;;;;;;5.10;4.20;;;13.20;99.90;;;;;;5134898;27;20065;-81
2023/09/02 02:31:58;;;;;;;7.28;5.25;;;13.10;99.90;;;;;;5134599;27;20091;-80
2023/09/02 02:34:23;;;;;;;6.05;4.97;;;13.10;99.90;;;;;;5135084;27;20046;-81
2023/09/02 02:36:49;;;;;;;5.82;5.10;;;13.00;99.90;;;;;;5134607;27;20039;-80
2023/09/02 02:39:16;;;;;;;7.00;4.97;;;13.00;99.90;;;;;;5134689;27;20100;-80
2023/09/02 02:41:41;;;;;;;5.82;5.32;;;13.00;99.90;;;;;;5135419;27;20047;-80
2023/09/02 02:44:07;;;;;;;5.97;4.68;;;13.00;99.90;;;;;;5134543;27;20460;-80
2023/09/02 02:46:33;;;;;;;6.60;5.50;;;13.00;99.90;;;;;;5134638;27;20544;-80
2023/09/02 02:48:59;;;;;;;8.02;5.78;;;12.90;99.90;;;;;;5134506;27;20440;-80
2023/09/02 02:51:24;;;;;;;7.18;6.03;;;12.90;99.90;;;;;;5116657;27;20118;-80
2023/09/02 02:53:51;;;;;;;9.18;6.32;;;12.90;99.90;;;;;;5134219;27;20050;-80
2023/09/02 02:56:16;;;;;;;6.90;5.85;;;12.90;99.90;;;;;;5134869;27;20047;-81
2023/09/02 02:58:42;;;;;;;8.48;5.70;;;12.90;99.90;;;;;;5134481;27;20046;-80
2023/09/02 03:01:11;;;;;;;6.38;5.63;;;12.90;99.90;;;;;;5116403;27;20126;-81
2023/09/02 03:03:37;;;;;;;8.02;5.15;;;12.80;99.90;;;;;;5134333;27;20483;-80
2023/09/02 03:06:04;;;;;;;8.35;5.82;;;12.80;99.90;;;;;;5134182;27;20047;-79
2023/09/02 03:08:30;;;;;;;8.27;6.50;;;12.80;99.90;;;;;;5134534;27;20046;-80
2023/09/02 03:11:01;;;;;;;7.75;6.35;;;12.80;99.90;;;;;;5134589;27;20126;-80
2023/09/02 03:13:28;;;;;;;7.82;6.35;;;12.80;99.90;;;;;;5134539;27;20039;-81
2023/09/02 03:15:55;;;;;;;5.80;5.13;;;12.80;99.90;;;;;;5134030;27;20082;-79
2023/09/02 03:18:21;;;;;;;7.63;6.43;;;12.80;99.90;;;;;;5134484;27;20490;-80
2023/09/02 03:20:47;;;;;;;6.53;5.32;;;12.80;99.90;;;;;;5115953;27;20134;-81
2023/09/02 03:23:14;;;;;;;6.10;5.50;;;12.80;99.90;;;;;;5098554;27;20125;-81
2023/09/02 03:25:40;;;;;;;8.85;6.50;;;12.90;99.90;;;;;;5133943;27;20095;-79
2023/09/02 03:28:05;;;;;;;9.18;7.07;;;13.00;99.90;;;;;;5133823;27;20043;-80
2023/09/02 03:30:32;;;;;;;9.07;6.75;;;13.00;99.90;;;;;;5133209;27;20115;-81
2023/09/02 03:32:58;;;;;;;8.50;6.68;;;13.00;99.90;;;;;;5133824;27;20527;-81
2023/09/02 03:35:24;;;;;;;8.27;6.93;;;13.10;99.90;;;;;;5133850;27;20045;-81
2023/09/02 03:37:50;;;;;;;11.10;8.02;;;13.10;99.90;;;;;;5134160;27;20051;-80
2023/09/02 03:40:15;;;;;;;9.15;7.88;;;13.10;99.90;;;;;;5133908;27;20039;-81
2023/09/02 03:42:41;;;;;;;8.40;6.53;;;13.20;99.90;;;;;;5133651;27;20436;-80
2023/09/02 03:45:10;;;;;;;10.45;8.18;;;13.20;99.90;;;;;;5115711;28;20122;-81
2023/09/02 03:47:36;;;;;;;11.82;8.25;;;13.20;99.90;;;;;;5133818;27;20046;-80
2023/09/02 03:50:03;;;;;;;8.73;7.30;;;13.20;99.90;;;;;;5115319;28;20387;-81
2023/09/02 03:52:29;;;;;;;8.32;6.82;;;13.30;99.90;;;;;;5133603;27;20051;-81
2023/09/02 03:54:55;;;;;;;9.60;7.80;;;13.20;99.90;;;;;;5133588;28;20119;-81
2023/09/02 03:57:20;;;;;;;11.63;9.68;;;13.30;99.90;;;;;;5138822;27;20054;-80
2023/09/02 03:59:46;;;;;;;10.65;9.50;;;13.30;99.90;;;;;;5140483;27;20031;-81
2023/09/02 04:02:13;;;;;;;9.57;8.20;;;13.30;99.90;;;;;;5140396;27;20047;-81
2023/09/02 04:04:39;;;;;;;10.07;8.38;;;13.30;99.90;;;;;;5140322;27;20051;-79
2023/09/02 04:07:05;;;;;;;8.32;6.90;;;13.30;99.90;;;;;;5140770;27;20043;-79
2023/09/02 04:09:31;;;;;;;9.43;6.90;;;13.30;99.90;;;;;;5140178;27;20054;-81
2023/09/02 04:11:58;;;;;;;8.70;6.80;;;13.30;99.90;;;;;;5140374;27;20103;-80
2023/09/02 04:14:23;;;;;;;8.02;6.35;;;13.30;99.90;;;;;;5140435;27;20043;-81
2023/09/02 04:16:51;;;;;;;9.30;7.60;;;13.40;99.90;;;;;;5123276;27;20417;-79
2023/09/02 04:19:17;;;;;;;8.80;7.28;;;13.40;99.90;;;;;;5124034;27;20392;-80
2023/09/02 04:21:44;;;;;;;9.70;7.95;;;13.40;99.90;;;;;;5123760;27;20051;-81
2023/09/02 04:24:09;;;;;;;8.32;7.03;;;13.40;99.90;;;;;;5141139;27;20042;-80
2023/09/02 04:26:35;;;;;;;8.20;6.43;;;13.50;99.90;;;;;;5140815;27;20043;-79
2023/09/02 04:29:01;;;;;;;9.68;8.68;;;13.50;99.90;;;;;;5140286;27;20114;-80
2023/09/02 04:31:26;;;;;;;10.88;7.90;;;13.50;99.90;;;;;;5140183;27;20063;-80
2023/09/02 04:33:52;;;;;;;11.00;7.63;;;13.50;99.90;;;;;;5118518;28;20067;-81
2023/09/02 04:36:18;;;;;;;11.18;8.57;;;13.40;99.90;;;;;;5119609;28;20577;-81
2023/09/02 04:38:45;;;;;;;9.90;8.15;;;13.40;99.90;;;;;;5119818;27;20114;-81
2023/09/02 04:41:11;;;;;;;10.95;8.73;;;13.40;99.90;;;;;;5119602;27;20035;-81
2023/09/02 04:43:38;;;;;;;12.77;9.93;;;13.40;99.90;;;;;;5119517;27;20047;-81
2023/09/02 04:46:04;;;;;;;13.32;9.63;;;13.40;99.90;;;;;;5120021;28;20046;-81
2023/09/02 04:48:30;;;;;;;14.20;10.27;;;13.50;99.90;;;;;;5118690;28;20051;-81
2023/09/02 04:50:56;;;;;;;11.27;9.32;;;13.50;99.90;;;;;;5119121;28;20101;-81
2023/09/02 04:53:22;;;;;;;14.25;9.95;;;13.60;99.90;;;;;;5119530;27;20132;-81
2023/09/02 04:55:49;;;;;;;12.27;9.50;;;13.60;99.90;;;;;;5119897;27;20058;-80
2023/09/02 04:58:16;;;;;;;11.20;8.98;;;13.60;99.90;;;;;;5120061;28;20052;-80
2023/09/02 05:00:42;;;;;;;17.20;10.70;;;13.60;99.90;;;;;;5118119;28;20055;-80
2023/09/02 05:03:10;;;;;;;11.45;8.70;;;13.50;99.90;;;;;;5119305;28;20047;-80
2023/09/02 05:05:36;;;;;;;12.95;11.50;;;13.50;99.90;;;;;;5118524;28;20047;-80
2023/09/02 05:08:02;;;;;;;14.25;11.40;;;13.50;99.90;;;;;;5100384;28;20173;-81
2023/09/02 05:10:28;;;;;;;12.15;10.80;;;13.60;99.90;;;;;;5114879;28;20079;-80
2023/09/02 05:12:54;;;;;;;13.98;11.20;;;13.60;99.90;;;;;;5115822;28;20044;-80
2023/09/02 05:15:19;;;;;;;15.25;11.80;;;13.60;99.90;;;;;;5115969;28;20051;-80
2023/09/02 05:17:46;;;;;;;14.45;11.32;;;13.50;99.90;;;;;;5097725;28;20130;-80
2023/09/02 05:20:12;;;;;;;16.10;12.02;;;13.50;99.90;;;;;;5115736;28;20043;-80
2023/09/02 05:22:37;;;;;;;14.02;12.50;;;13.50;99.90;;;;;;5114444;28;20076;-80
2023/09/02 05:25:04;;;;;;;13.98;12.13;;;13.60;99.90;;;;;;5115999;28;20048;-82
2023/09/02 05:27:30;;;;;;;13.15;10.85;;;13.60;99.90;;;;;;5115898;28;20048;-82
2023/09/02 05:29:56;;;;;;;13.55;10.38;;;13.50;99.90;;;;;;5115478;28;20449;-82
2023/09/02 05:32:22;;;;;;;15.93;11.52;;;13.60;99.90;;;;;;5118523;27;20055;-82
2023/09/02 05:34:48;;;;;;;17.98;13.65;;;13.60;99.90;;;;;;5136505;27;20043;-82
2023/09/02 05:37:13;;;;;;;14.57;11.57;;;13.60;99.90;;;;;;5136516;27;20059;-82
2023/09/02 05:39:39;;;;;;;12.85;10.82;;;13.60;99.90;;;;;;5117667;27;20047;-82
2023/09/02 05:42:05;;;;;;;15.70;11.70;;;13.60;99.90;;;;;;5135934;27;20059;-82
2023/09/02 05:44:34;;;;;;;14.60;11.50;;;13.70;99.90;;;;;;5117597;27;20049;-82
2023/09/02 05:47:00;;;;;;;15.38;12.15;;;13.70;99.90;;;;;;5136155;27;20082;-82
2023/09/02 05:49:25;;;;;;;13.07;10.00;;;13.70;99.90;;;;;;5135645;27;20085;-82
2023/09/02 05:51:51;;;;;;;16.30;12.38;;;13.80;99.90;;;;;;5135767;27;20047;-82
2023/09/02 05:54:17;;;;;;;17.52;13.75;;;13.90;99.90;;;;;;5135490;27;20133;-82
2023/09/02 05:56:42;;;;;;;15.05;12.27;;;14.00;99.90;;;;;;5135693;27;20111;-81
2023/09/02 05:59:08;;;;;;;17.13;12.60;;;14.00;99.90;;;;;;5117419;27;20082;-82
2023/09/02 06:01:34;;;;;;;16.75;12.40;;;14.10;99.90;;;;;;5135529;27;20043;-82
2023/09/02 06:03:59;;;;;;;14.18;12.18;;;14.10;99.90;;;;;;5117840;27;20104;-81
2023/09/02 06:06:25;;;;;;;15.77;12.18;;;14.10;99.90;;;;;;5135403;27;20043;-83
2023/09/02 06:08:53;;;;;;;16.98;13.00;;;14.20;99.90;;;;;;5117658;27;20156;-82
2023/09/02 06:11:19;;;;;;;16.38;12.15;;;14.20;99.90;;;;;;5135212;27;20039;-82
2023/09/02 06:13:45;;;;;;;16.33;13.98;;;14.20;99.90;;;;;;5135215;27;20061;-82
2023/09/02 06:16:10;;;;;;;17.92;12.63;;;14.20;99.90;;;;;;5117567;27;20138;-81
2023/09/02 06:18:36;;;;;;;16.50;12.30;;;14.20;99.90;;;;;;5135048;27;20547;-82
2023/09/02 06:21:13;;;;;;;19.33;12.32;;;14.30;99.90;;;;;;5134786;27;20039;-81
2023/09/02 06:23:43;;;;;;;19.05;14.15;;;14.30;99.90;;;;;;5134953;27;20363;-82
2023/09/02 06:26:09;;;;;;;15.60;12.98;;;14.40;99.90;;;;;;5135303;27;20437;-81
2023/09/02 06:28:35;;;;;;;17.95;14.07;;;14.40;99.90;;;;;;5134494;27;20552;-81
2023/09/02 06:31:08;;;;;;;16.52;12.93;;;14.50;99.90;;;;;;5134909;27;20051;-82
2023/09/02 06:33:34;;;;;;;15.50;13.52;;;14.60;99.90;;;;;;5134957;27;20059;-82
2023/09/02 06:35:59;;;;;;;17.67;14.55;;;14.70;99.90;;;;;;5099646;27;20070;-81
2023/09/02 06:38:25;;;;;;;27.33;15.85;;;14.80;99.90;;;;;;5134450;27;20086;-81
2023/09/02 06:40:51;;;;;;;21.80;15.10;;;14.90;99.90;;;;;;5134953;27;20143;-82
2023/09/02 06:43:17;;;;;;;17.60;14.75;;;15.10;99.90;;;;;;5135024;27;20150;-82
2023/09/02 06:45:42;;;;;;;20.63;15.95;;;15.20;99.90;;;;;;5134512;27;20062;-82
2023/09/02 06:48:08;;;;;;;22.52;16.42;;;15.20;99.90;;;;;;5135161;27;20040;-82
2023/09/02 06:50:34;;;;;;;18.23;14.27;;;15.20;99.90;;;;;;5116456;27;20057;-82
2023/09/02 06:53:00;;;;;;;20.58;16.27;;;15.30;99.90;;;;;;5116265;27;20047;-81
2023/09/02 06:55:25;;;;;;;20.52;16.33;;;15.40;99.90;;;;;;5133786;27;20103;-80
2023/09/02 06:57:51;;;;;;;20.67;16.02;;;15.60;99.90;;;;;;5134178;27;20075;-81
2023/09/02 07:00:17;;;;;;;21.08;17.50;;;15.70;99.90;;;;;;5133928;27;20459;-81
2023/09/02 07:02:42;;;;;;;24.60;17.10;;;15.80;99.90;;;;;;5099325;27;20058;-81
2023/09/02 07:05:08;;;;;;;24.13;17.88;;;16.00;99.90;;;;;;5116194;27;20475;-81
2023/09/02 07:07:36;;;;;;;21.23;16.23;;;16.20;99.90;;;;;;5134475;27;20640;-81
2023/09/02 07:10:03;;;;;;;20.45;16.50;;;16.40;99.90;;;;;;5134142;27;20197;-81
2023/09/02 07:12:29;;;;;;;22.33;17.38;;;16.60;99.90;;;;;;5134028;27;20051;-82
2023/09/02 07:14:54;;;;;;;22.60;16.60;;;16.80;99.90;;;;;;5134026;27;20047;-82
2023/09/02 07:17:20;;;;;;;21.38;17.67;;;17.00;99.90;;;;;;5133651;27;20047;-81
2023/09/02 07:19:46;;;;;;;20.52;16.33;;;17.60;99.90;;;;;;5134420;27;20035;-82
2023/09/02 07:22:11;;;;;;;19.77;15.85;;;18.80;99.90;;;;;;5134235;27;20035;-81
2023/09/02 07:24:37;;;;;;;20.67;15.38;;;20.00;99.90;;;;;;5134132;27;20456;-81
2023/09/02 07:27:03;;;;;;;21.08;14.73;;;21.10;99.90;;;;;;5134632;27;20153;-82
2023/09/02 07:29:29;;;;;;;19.20;15.90;;;21.80;99.90;;;;;;5133953;27;20035;-82
2023/09/02 07:31:56;;;;;;;20.25;15.52;;;22.60;99.90;;;;;;5133330;27;20414;-81
2023/09/02 07:34:21;;;;;;;20.58;15.82;;;22.90;99.90;;;;;;5133414;27;20059;-82
2023/09/02 07:36:47;;;;;;;24.58;17.70;;;23.50;99.90;;;;;;5133828;27;20050;-83
2023/09/02 07:39:16;;;;;;;21.77;16.92;;;23.60;99.90;;;;;;5133743;27;20138;-82
2023/09/02 07:41:41;;;;;;;22.55;16.02;;;24.00;99.90;;;;;;5115521;27;20039;-82
2023/09/02 07:44:09;;;;;;;19.95;15.68;;;24.30;99.90;;;;;;5133802;27;20080;-81
2023/09/02 07:46:34;;;;;;;18.25;14.23;;;25.00;99.90;;;;;;5115548;27;20047;-82
2023/09/02 07:49:00;;;;;;;17.92;14.52;;;25.40;99.90;;;;;;5136589;27;20049;-81
2023/09/02 07:51:26;;;;;;;19.02;14.10;;;25.70;99.90;;;;;;5135875;27;20393;-81
2023/09/02 07:53:51;;;;;;;15.60;13.98;;;26.00;99.90;;;;;;5117580;28;20093;-82
2023/09/02 07:56:17;;;;;;;18.20;13.60;;;26.40;99.90;;;;;;5134306;28;20132;-82
2023/09/02 07:58:46;;;;;;;19.08;14.20;;;26.30;99.90;;;;;;5115975;28;20055;-84
2023/09/02 08:01:12;;;;;;;16.58;13.05;;;26.90;99.90;;;;;;5133965;28;20054;-82
2023/09/02 08:03:38;;;;;;;16.55;12.82;;;26.70;99.80;;;;;;5133497;28;20039;-82
2023/09/02 08:06:08;;;;;;;17.58;13.98;;;27.00;99.80;;;;;;5134072;28;20043;-82
2023/09/02 08:08:35;;;;;;;16.08;11.70;;;26.90;99.00;;;;;;5134064;28;20136;-81
2023/09/02 08:11:05;;;;;;;17.67;13.40;;;26.80;99.40;;;;;;5133412;28;20050;-82
2023/09/02 08:13:31;;;;;;;18.27;13.15;;;26.80;99.50;;;;;;5133970;28;20401;-82
2023/09/02 08:15:57;;;;;;;18.10;13.80;;;27.00;98.90;;;;;;5133696;28;20047;-83
2023/09/02 08:18:23;;;;;;;18.48;14.02;;;27.30;98.60;;;;;;5133439;28;20460;-82
2023/09/02 08:20:49;;;;;;;18.20;13.68;;;27.20;98.10;;;;;;5133965;28;20043;-82
2023/09/02 08:23:14;;;;;;;17.88;12.82;;;27.10;98.20;;;;;;5133647;28;20074;-82
2023/09/02 08:25:40;;;;;;;14.00;12.55;;;26.90;98.60;;;;;;5115820;28;20455;-82
2023/09/02 08:28:05;;;;;;;16.00;13.65;;;26.90;98.10;;;;;;5115697;28;20047;-82
2023/09/02 08:30:31;;;;;;;15.57;12.40;;;26.80;98.10;;;;;;5115503;28;20047;-82
2023/09/02 08:32:57;;;;;;;14.30;12.32;;;27.10;98.00;;;;;;5114254;28;20095;-82
2023/09/02 08:35:23;;;;;;;16.25;12.80;;;27.30;97.50;;;;;;5116467;28;20047;-82
2023/09/02 08:37:51;;;;;;;15.05;13.20;;;27.30;97.20;;;;;;5114600;28;20096;-82
2023/09/02 08:40:17;;;;;;;16.80;12.82;;;27.40;97.10;;;;;;5112818;28;20055;-80
2023/09/02 08:42:43;;;;;;;13.85;12.43;;;27.90;96.60;;;;;;5112284;28;20115;-82
2023/09/02 08:45:09;;;;;;;17.52;13.85;;;28.20;96.20;;;;;;5116743;28;20048;-81
2023/09/02 08:47:38;;;;;;;16.65;12.73;;;28.40;95.70;;;;;;5098453;28;20126;-81
2023/09/02 08:50:06;;;;;;;16.52;12.63;;;28.70;95.20;;;;;;5116520;28;20361;-81
2023/09/02 08:52:32;;;;;;;15.23;12.13;;;28.40;94.90;;;;;;5116273;28;20055;-82
2023/09/02 08:54:59;;;;;;;16.77;12.18;;;28.10;95.40;;;;;;5116451;28;20040;-81
2023/09/02 08:57:25;;;;;;;17.08;12.02;;;28.40;95.80;;;;;;5116290;28;20077;-81
2023/09/02 08:59:51;;;;;;;18.35;13.25;;;28.10;95.40;;;;;;5115704;28;20047;-82
2023/09/02 09:02:18;;;;;;;15.25;12.30;;;28.20;95.40;;;;;;5116147;28;20039;-83
2023/09/02 09:04:48;;;;;;;15.00;12.18;;;28.20;95.50;;;;;;5115832;28;20058;-83
2023/09/02 09:07:16;;;;;;;16.77;12.70;;;28.30;95.40;;;;;;5116396;28;20048;-82
2023/09/02 09:09:42;;;;;;;14.73;11.90;;;28.60;95.00;;;;;;5115812;28;20086;-82
2023/09/02 09:12:09;;;;;;;17.25;12.27;;;28.50;94.80;;;;;;5115814;28;20080;-82
2023/09/02 09:14:41;;;;;;;15.98;12.27;;;28.60;95.00;;;;;;5115735;28;20082;-81
2023/09/02 09:17:07;;;;;;;15.93;12.18;;;28.70;94.20;;;;;;5115727;28;20050;-84
2023/09/02 09:19:33;;;;;;;17.45;12.15;;;28.00;94.50;;;;;;5116309;28;20486;-79
2023/09/02 09:22:02;;;;;;;13.50;11.75;;;27.80;94.70;;;;;;5115633;28;20040;-82
2023/09/02 09:24:28;;;;;;;14.15;11.40;;;28.10;94.90;;;;;;5114569;28;20384;-82
2023/09/02 09:26:56;;;;;;;14.40;12.52;;;28.60;94.70;;;;;;5116152;28;20082;-82
2023/09/02 09:29:21;;;;;;;12.57;11.18;;;28.90;94.20;;;;;;5115442;28;20155;-82
2023/09/02 09:31:50;;;;;;;15.82;13.20;;;29.10;93.60;;;;;;5116065;28;20130;-82
2023/09/02 09:34:16;;;;;;;16.05;11.82;;;28.70;93.60;;;;;;5133453;27;20138;-81
2023/09/02 09:36:44;;;;;;;15.32;11.82;;;28.50;93.60;;;;;;5136510;27;20479;-82
2023/09/02 09:39:09;;;;;;;14.15;12.52;;;28.20;93.60;;;;;;5136024;27;20050;-82
2023/09/02 09:41:48;;;;;;;16.55;12.63;;;28.10;93.70;;;;;;5135882;27;20039;-82
2023/09/02 09:44:16;;;;;;;14.57;11.25;;;28.80;92.50;;;;;;5135888;27;20062;-82
2023/09/02 09:46:49;;;;;;;15.52;12.05;;;29.10;93.20;;;;;;5136359;27;20045;-82
2023/09/02 09:49:27;;;;;;;16.15;11.98;;;28.90;92.50;;;;;;5136575;27;20050;-82
2023/09/02 09:52:02;;;;;;;13.18;11.73;;;28.30;91.60;;;;;;5135787;27;20134;-82
2023/09/02 09:54:42;;;;;;;12.48;11.18;;;27.40;92.90;;;;;;5134996;27;20039;-83
2023/09/02 09:57:10;;;;;;;17.63;12.27;;;26.80;93.10;;;;;;5135608;27;20058;-82
2023/09/02 09:59:36;;;;;;;15.82;12.45;;;26.10;93.50;;;;;;5135912;27;20047;-82
2023/09/02 10:02:06;;;;;;;13.88;11.25;;;26.20;94.30;;;;;;5135478;27;20126;-81
2023/09/02 10:04:34;;;;;;;13.93;11.50;;;26.00;93.90;;;;;;5135935;27;20043;-82
2023/09/02 10:07:01;;;;;;;15.00;12.88;;;25.30;94.40;;;;;;5135433;27;20082;-82
2023/09/02 10:09:43;;;;;;;16.00;12.60;;;24.50;95.00;;;;;;5135207;27;20043;-81
2023/09/02 10:12:11;;;;;;;19.98;15.00;;;24.00;95.80;;;;;;5135460;27;20464;-81
2023/09/02 10:14:40;;;;;;;16.33;12.98;;;23.30;96.40;;;;;;5134774;27;20516;-82
2023/09/02 10:17:06;;;;;;;17.35;14.10;;;23.30;97.00;;;;;;5135305;27;20054;-82
2023/09/02 10:19:36;;;;;;;18.15;13.48;;;23.00;97.30;;;;;;5135108;27;20364;-81
2023/09/02 10:22:03;;;;;;;15.60;12.95;;;22.90;97.70;;;;;;5135122;27;20076;-82
2023/09/02 10:24:34;;;;;;;13.85;12.43;;;22.60;98.20;;;;;;5135067;27;20474;-82
2023/09/02 10:27:04;;;;;;;18.85;13.80;;;22.30;98.90;;;;;;5135071;27;20043;-81
2023/09/02 10:29:34;;;;;;;14.30;11.88;;;22.00;98.80;;;;;;5134725;27;20058;-81
2023/09/02 10:32:09;;;;;;;15.20;13.15;;;21.80;99.60;;;;;;5134742;27;20047;-80
2023/09/02 10:35:24;;;;;;;16.55;12.20;;;21.60;99.40;;;;;;5135471;27;20047;-82
2023/09/02 10:37:53;;;;;;;18.92;13.68;;;22.10;99.70;;;;;;5116757;27;20047;-82
2023/09/02 10:40:31;;;;;;;16.08;12.90;;;24.10;97.60;;;;;;5134612;27;20054;-82
2023/09/02 10:42:59;;;;;;;14.65;12.52;;;25.50;96.30;;;;;;5134309;27;20047;-81
2023/09/02 10:45:25;;;;;;;17.52;11.77;;;26.70;95.10;;;;;;5134477;27;20138;-82
2023/09/02 10:47:51;;;;;;;13.52;12.10;;;27.20;94.50;;;;;;5116034;27;20035;-81
2023/09/02 10:50:19;;;;;;;16.25;12.65;;;27.20;94.20;;;;;;5134531;27;20035;-82
2023/09/02 10:52:45;;;;;;;14.18;10.18;;;27.20;93.90;;;;;;5134376;27;20071;-81
2023/09/02 10:55:11;;;;;;;13.98;11.63;;;26.60;93.90;;;;;;5099305;27;20333;-81
2023/09/02 10:58:03;;;;;;;13.27;10.60;;;25.80;94.00;;;;;;5116064;27;20046;-83
2023/09/02 11:00:29;;;;;;;14.23;11.07;;;25.30;94.20;;;;;;5130295;27;20051;-81
2023/09/02 11:02:57;;;;;;;12.13;10.85;;;24.70;95.10;;;;;;5134317;27;20472;-82
2023/09/02 11:05:25;;;;;;;11.65;10.45;;;24.50;95.40;;;;;;5133943;27;20062;-81
2023/09/02 11:07:52;;;;;;;13.20;9.82;;;24.50;95.30;;;;;;5134167;27;20066;-81
2023/09/02 11:10:19;;;;;;;13.50;9.95;;;24.20;95.40;;;;;;5134081;27;20114;-82
2023/09/02 11:12:57;;;;;;;13.20;8.55;;;23.90;95.70;;;;;;5134411;27;20083;-81
2023/09/02 11:15:23;;;;;;;12.73;9.50;;;23.70;95.40;;;;;;5134336;27;20122;-82
2023/09/02 11:17:49;;;;;;;10.50;9.45;;;23.60;95.90;;;;;;5136063;27;20098;-82
2023/09/02 11:20:19;;;;;;;10.15;9.13;;;23.50;95.90;;;;;;5138833;27;20502;-79
2023/09/02 11:23:01;;;;;;;12.05;9.52;;;23.50;95.90;;;;;;5120394;27;20130;-80
2023/09/02 11:25:41;;;;;;;11.52;8.52;;;23.60;95.60;;;;;;5118428;27;20047;-81
2023/09/02 11:28:08;;;;;;;14.85;9.38;;;23.40;95.70;;;;;;5133891;27;20100;-81
2023/09/02 11:30:38;;;;;;;10.63;9.38;;;23.30;96.00;;;;;;5133792;27;20100;-81
2023/09/02 11:33:04;;;;;;;13.32;11.52;;;23.30;96.20;;;;;;5133435;27;20124;-81
2023/09/02 11:35:32;;;;;;;12.15;9.45;;;23.00;95.90;;;;;;5134082;27;20054;-81
2023/09/02 11:37:58;;;;;;;9.63;8.68;;;23.10;96.00;;;;;;5133616;27;20039;-82
2023/09/02 11:40:25;;;;;;;13.45;9.82;;;23.20;96.30;;;;;;5115897;27;20055;-81
2023/09/02 11:42:59;;;;;;;10.05;8.77;;;23.20;96.10;;;;;;5133771;27;20103;-82
2023/09/02 11:45:26;;;;;;;11.52;8.27;;;23.20;96.20;;;;;;5134068;27;20043;-82
2023/09/02 11:47:52;;;;;;;11.55;9.18;;;22.90;96.70;;;;;;5133529;27;20047;-81
2023/09/02 11:50:22;;;;;;;9.95;7.55;;;22.80;97.10;;;;;;5133483;27;20054;-81
2023/09/02 11:52:51;;;;;;;14.43;8.43;;;22.80;97.50;;;;;;5134052;27;20046;-82
2023/09/02 11:55:17;;;;;;;9.18;7.70;;;22.60;97.10;;;;;;5133466;27;20043;-82
2023/09/02 11:57:45;;;;;;;9.25;7.45;;;22.60;97.80;;;;;;5134060;28;20043;-81
2023/09/02 12:00:22;;;;;;;9.23;6.55;;;22.80;97.30;;;;;;5133517;28;20043;-81
2023/09/02 12:02:48;;;;;;;6.78;5.88;;;22.70;97.10;;;;;;5133776;28;20042;-81
2023/09/02 12:05:15;;;;;;;6.93;6.18;;;22.80;96.60;;;;;;5115396;28;20047;-82
2023/09/02 12:07:45;;;;;;;6.20;5.60;;;22.70;95.90;;;;;;5133604;28;20062;-82
2023/09/02 12:10:15;;;;;;;7.75;6.90;;;22.70;95.50;;;;;;5115539;28;20126;-82
2023/09/02 12:12:42;;;;;;;7.70;6.75;;;22.70;95.90;;;;;;5134078;28;20055;-82
2023/09/02 12:15:16;;;;;;;7.38;6.60;;;22.80;96.70;;;;;;5132954;28;20130;-79
2023/09/02 12:17:42;;;;;;;8.65;6.35;;;22.70;96.20;;;;;;5134784;27;20091;-81
2023/09/02 12:20:11;;;;;;;8.85;6.57;;;22.90;96.90;;;;;;5137377;27;20039;-81
2023/09/02 12:22:37;;;;;;;8.32;5.70;;;22.90;96.60;;;;;;5137254;27;20067;-81
2023/09/02 12:25:15;;;;;;;8.63;6.45;;;22.70;96.60;;;;;;5137369;27;20055;-81
2023/09/02 12:27:41;;;;;;;8.93;6.28;;;22.60;97.10;;;;;;5137593;27;20039;-81
2023/09/02 12:30:08;;;;;;;7.53;6.30;;;22.40;97.20;;;;;;5101858;27;20047;-81
2023/09/02 12:32:34;;;;;;;8.35;5.65;;;22.50;97.30;;;;;;5137354;27;20043;-81
2023/09/02 12:35:05;;;;;;;6.22;5.50;;;22.50;97.00;;;;;;5137945;27;20079;-82
2023/09/02 12:37:31;;;;;;;6.85;5.63;;;22.70;97.00;;;;;;5137470;27;20104;-80